This is the latest recevied weather packets stored in our database for station/object DG5MNJ. If no packets are shown the sender has not sent any weather packets the latest 10 day(s).
| Time | Temp. | Humidity | Pressure | Rain* | Wind** | Luminosity | Snow |
|---|---|---|---|---|---|---|---|
| 1777112103 | 18.89° C | 35% | 1015.3 hPa | 0 mm | - | 858 W/m² | - |
| 1777108802 | 18.33° C | 38% | 1015.5 hPa | 0 mm | - | 788 W/m² | - |
| 1777107002 | 17.78° C | 34% | 1015.5 hPa | 0 mm | - | 737 W/m² | - |
| 1777105802 | 17.22° C | 39% | 1015.6 hPa | 0 mm | - | 695 W/m² | - |
| 1777105502 | 17.78° C | 39% | 1015.6 hPa | 0 mm | - | 684 W/m² | - |
| 1777105222 | 16.67° C | 40% | 1015.6 hPa | 0 mm | - | 675 W/m² | - |
| 1777104902 | 16.67° C | 40% | 1015.8 hPa | 0 mm | - | 662 W/m² | - |
| 1777104622 | 16.67° C | 41% | 1015.8 hPa | 0 mm | - | 652 W/m² | - |
| 1777104322 | 16.67° C | 42% | 1015.8 hPa | 0 mm | - | 639 W/m² | - |
| 1777103702 | 16.11° C | 41% | 1015.7 hPa | 0 mm | - | 611 W/m² | - |
| 1777101901 | 14.44° C | 42% | 1015.9 hPa | 0 mm | - | 526 W/m² | - |
| 1777100704 | 13.33° C | 46% | 1016.2 hPa | 0 mm | - | 469 W/m² | - |
| 1777096201 | 8.89° C | 56% | 1016.1 hPa | 0 mm | - | 238 W/m² | - |
| 1777095003 | 7.78° C | 59% | 1016.1 hPa | 0 mm | - | 176 W/m² | - |
| 1777093803 | 6.67° C | 62% | 1015.8 hPa | 0 mm | - | 118 W/m² | - |
| 1777093202 | 6.11° C | 63% | 1015.8 hPa | 0 mm | - | 90 W/m² | - |
| 1777089902 | 5° C | 66% | 1015.6 hPa | 0 mm | - | 0 W/m² | - |
| 1777088402 | 5° C | 66% | 1015.7 hPa | 0 mm | - | 0 W/m² | - |
| 1777087503 | 5° C | 66% | 1015.6 hPa | 0 mm | - | 0 W/m² | - |
| 1777086302 | 5.56° C | 66% | 1015.7 hPa | 0 mm | - | 0 W/m² | - |
| 1777085722 | 5.56° C | 65% | 1015.7 hPa | 0 mm | - | 0 W/m² | - |
| 1777085402 | 5.56° C | 65% | 1015.9 hPa | 0 mm | - | 0 W/m² | - |
| 1777080902 | 6.11° C | 62% | 1015.8 hPa | 0 mm | - | 0 W/m² | - |
| 1777080625 | 6.11° C | 62% | 1015.8 hPa | 0 mm | - | 0 W/m² | - |
| 1777079402 | 6.67° C | 61% | 1015.7 hPa | 0 mm | - | 0 W/m² | - |
* Rain latest hour (hover to see other rain measurements)
** Current wind speed in m/s (hover to see current wind gust speed)